»·PEaware :: N171MA KSQL-KCLS

N171MA :: KSQL-KCLS

FLIGHT INFORMATION

Flight Status: Arrived
Operator: Privately registered:
United States
More flights under this callsign
Pilot: Tim M. (868)
Aircraft: SOCATA TBM-900
(TBM9)
More flights by this aircraft type
Origin: KSQL San Carlos
United States
Destination: KCLS Chehalis-Centralia
United States
More flights between these airports :: More routes between these airports
Route: OAK J1 OED J126 UBG
File this flight plan on PilotEdge
Remarks:
Altitude:
(Current/Filed)
28,000ft
Speed:
(Current/Filed)
315kts
Departed: 23-Aug-20 11:47 AM
Arrived: 23-Aug-20 01:39 PM
Distance/Time
Traveled:
551nm/1:52
Distance/Time
To Go:
Arrived

Flight Plot

Page will automatically refresh every two minutes.

Flight plan parsing failed; only flown route is shown


Map Options




Map Legend


Flown Route
Filed Route
Departure Airport
Arrival Airport
Navaid (VOR, NDB)
Fix

Horizontal Profiles

Position Reports

Time Latitude Longitude Heading Altitude Ground
Speed
23-Aug-20 11:24 37.511739 -122.250641 139 8ft 0kts
23-Aug-20 11:25 37.511739 -122.250641 139 8ft 0kts
23-Aug-20 11:26 37.511739 -122.250641 139 8ft 0kts
23-Aug-20 11:27 37.511739 -122.250641 139 8ft 0kts
23-Aug-20 11:28 37.511739 -122.250641 139 8ft 0kts
23-Aug-20 11:29 37.511739 -122.250641 139 8ft 0kts
23-Aug-20 11:30 37.511739 -122.250641 139 8ft 0kts
23-Aug-20 11:31 37.511739 -122.250641 139 8ft 0kts
23-Aug-20 11:32 37.511739 -122.250641 139 8ft 0kts
23-Aug-20 11:33 37.511739 -122.250641 139 8ft 0kts
23-Aug-20 11:34 37.511739 -122.250641 139 8ft 0kts
23-Aug-20 11:35 37.511739 -122.250641 139 8ft 0kts
23-Aug-20 11:39 37.511738 -122.250641 138 8ft 0kts
23-Aug-20 11:40 37.511738 -122.250641 138 8ft 0kts
23-Aug-20 11:41 37.511738 -122.250641 138 8ft 0kts
23-Aug-20 11:43 37.511738 -122.250641 138 8ft 0kts
23-Aug-20 11:44 37.511738 -122.250641 138 8ft 0kts
23-Aug-20 11:45 37.510769 -122.249301 138 8ft 16kts
23-Aug-20 11:46 37.509471 -122.247516 122 7ft 7kts
23-Aug-20 11:47 37.518029 -122.256422 319 324ft 118kts
23-Aug-20 11:48 37.532851 -122.241500 125 1626ft 161kts
23-Aug-20 11:49 37.536369 -122.203187 359 2993ft 157kts
23-Aug-20 11:50 37.579547 -122.221301 351 4170ft 175kts
23-Aug-20 11:51 37.627958 -122.224417 358 6608ft 176kts
23-Aug-20 11:52 37.677424 -122.224205 359 8773ft 182kts
23-Aug-20 11:53 37.729359 -122.223572 357 10847ft 192kts
23-Aug-20 11:54 37.784200 -122.223890 356 12979ft 202kts
23-Aug-20 11:55 37.841726 -122.224211 357 15065ft 212kts
23-Aug-20 11:56 37.901665 -122.224542 358 17015ft 222kts
23-Aug-20 11:57 37.964187 -122.224842 359 19050ft 228kts
23-Aug-20 11:57 38.017344 -122.225103 359 20767ft 231kts
23-Aug-20 11:59 38.093172 -122.225503 359 23103ft 237kts
23-Aug-20 12:00 38.159538 -122.225831 359 25009ft 245kts
23-Aug-20 12:00 38.217257 -122.226129 358 26543ft 254kts
23-Aug-20 12:01 38.289434 -122.226528 358 27965ft 278kts
23-Aug-20 12:02 38.374065 -122.226990 358 27962ft 321kts
23-Aug-20 12:04 38.480827 -122.227558 358 27955ft 333kts
23-Aug-20 12:04 38.558024 -122.227970 358 27954ft 334kts
23-Aug-20 12:05 38.651325 -122.228462 357 27954ft 335kts
23-Aug-20 12:06 38.744622 -122.228959 357 27955ft 336kts
23-Aug-20 12:07 38.837923 -122.229460 357 27955ft 336kts
23-Aug-20 12:08 38.931679 -122.229959 357 27955ft 336kts
23-Aug-20 12:09 39.024992 -122.230465 357 27956ft 336kts
23-Aug-20 12:10 39.117429 -122.230954 356 27951ft 336kts
23-Aug-20 12:11 39.191616 -122.231354 356 27951ft 336kts
23-Aug-20 12:12 39.284957 -122.231856 356 27951ft 336kts
23-Aug-20 12:13 39.378468 -122.232379 356 27952ft 336kts
23-Aug-20 12:14 39.472225 -122.232879 356 27952ft 336kts
23-Aug-20 12:15 39.565590 -122.233401 356 27952ft 337kts
23-Aug-20 12:16 39.659203 -122.233918 356 27946ft 337kts
23-Aug-20 12:17 39.752771 -122.234423 356 27945ft 337kts
23-Aug-20 12:18 39.846492 -122.234950 356 27946ft 337kts
23-Aug-20 12:19 39.940378 -122.235465 355 27946ft 337kts
23-Aug-20 12:20 40.033830 -122.235988 355 27946ft 337kts
23-Aug-20 12:21 40.126753 -122.244019 343 27944ft 332kts
23-Aug-20 12:22 40.216976 -122.268740 343 27942ft 331kts
23-Aug-20 12:23 40.306526 -122.293386 343 27942ft 331kts
23-Aug-20 12:24 40.396420 -122.318195 343 27943ft 331kts
23-Aug-20 12:25 40.486646 -122.343163 343 27943ft 331kts
23-Aug-20 12:26 40.576671 -122.368145 343 27944ft 331kts
23-Aug-20 12:27 40.666848 -122.393237 343 27953ft 331kts
23-Aug-20 12:28 40.756708 -122.418309 343 28010ft 330kts
23-Aug-20 12:29 40.846384 -122.443405 343 28046ft 330kts
23-Aug-20 12:30 40.936467 -122.468677 343 28046ft 331kts
23-Aug-20 12:31 41.026746 -122.494076 343 28046ft 331kts
23-Aug-20 12:32 41.116152 -122.519300 343 28042ft 332kts
23-Aug-20 12:33 41.206259 -122.544786 343 28042ft 331kts
23-Aug-20 12:34 41.297151 -122.570597 344 28047ft 337kts
23-Aug-20 12:35 41.388229 -122.596494 343 28047ft 332kts
23-Aug-20 12:36 41.478695 -122.622309 343 28024ft 331kts
23-Aug-20 12:37 41.568639 -122.648049 343 28025ft 331kts
23-Aug-20 12:38 41.658270 -122.673780 343 28029ft 330kts
23-Aug-20 12:39 41.748567 -122.699759 343 28029ft 330kts
23-Aug-20 12:40 41.838538 -122.725728 343 28030ft 330kts
23-Aug-20 12:41 41.928678 -122.751819 343 28030ft 330kts
23-Aug-20 12:42 42.018647 -122.777914 343 28006ft 331kts
23-Aug-20 12:43 42.107401 -122.803779 343 27983ft 332kts
23-Aug-20 12:44 42.197622 -122.830123 343 27980ft 331kts
23-Aug-20 12:45 42.287790 -122.856509 342 27980ft 331kts
23-Aug-20 12:46 42.377752 -122.882940 342 27982ft 331kts
23-Aug-20 12:47 42.467465 -122.909358 342 27983ft 331kts
23-Aug-20 12:48 42.559318 -122.927616 347 27985ft 333kts
23-Aug-20 12:49 42.650969 -122.944515 347 28007ft 333kts
23-Aug-20 12:50 42.742857 -122.961513 347 28032ft 333kts
23-Aug-20 12:51 42.834680 -122.978549 347 28034ft 333kts
23-Aug-20 12:52 42.926737 -122.995702 347 28038ft 334kts
23-Aug-20 12:53 43.019065 -123.012943 347 28041ft 334kts
23-Aug-20 12:54 43.110290 -123.030023 346 28030ft 334kts
23-Aug-20 12:55 43.202504 -123.047338 346 28010ft 334kts
23-Aug-20 12:56 43.294882 -123.064760 346 28007ft 334kts
23-Aug-20 12:57 43.387253 -123.082221 346 28005ft 334kts
23-Aug-20 12:58 43.479808 -123.099767 346 28002ft 334kts
23-Aug-20 12:59 43.572076 -123.117317 346 28000ft 335kts
23-Aug-20 13:00 43.664476 -123.134936 346 28000ft 335kts
23-Aug-20 13:01 43.756702 -123.152594 346 28011ft 335kts
23-Aug-20 13:02 43.849020 -123.170300 346 28027ft 335kts
23-Aug-20 13:03 43.941458 -123.188117 346 28029ft 336kts
23-Aug-20 13:04 44.034090 -123.205988 345 28029ft 336kts
23-Aug-20 13:05 44.125398 -123.221356 356 28011ft 343kts
23-Aug-20 13:06 44.220560 -123.203435 3 28024ft 345kts
23-Aug-20 13:07 44.315383 -123.184907 3 28025ft 345kts
23-Aug-20 13:08 44.410657 -123.166237 3 28025ft 345kts
23-Aug-20 13:09 44.505762 -123.147539 3 28026ft 345kts
23-Aug-20 13:10 44.600892 -123.128775 3 28027ft 345kts
23-Aug-20 13:11 44.695806 -123.109990 3 28027ft 345kts
23-Aug-20 13:12 44.790967 -123.091095 3 28027ft 345kts
23-Aug-20 13:13 44.885997 -123.072162 3 28027ft 345kts
23-Aug-20 13:14 44.981501 -123.053069 2 28028ft 346kts
23-Aug-20 13:15 45.076942 -123.033930 2 28033ft 346kts
23-Aug-20 13:16 45.170941 -123.015006 2 28030ft 346kts
23-Aug-20 13:17 45.267389 -122.995583 3 27043ft 364kts
23-Aug-20 13:18 45.369384 -122.978280 355 24838ft 365kts
23-Aug-20 13:19 45.469296 -122.978550 354 22628ft 356kts
23-Aug-20 13:20 45.567254 -122.978890 355 20423ft 350kts
23-Aug-20 13:21 45.664061 -122.979220 355 18219ft 344kts
23-Aug-20 13:22 45.758148 -122.979557 355 16014ft 334kts
23-Aug-20 13:23 45.850039 -122.979871 356 13816ft 327kts
23-Aug-20 13:24 45.936261 -122.980157 356 12011ft 294kts
23-Aug-20 13:25 46.015711 -122.980477 358 10747ft 278kts
23-Aug-20 13:26 46.091709 -122.980737 359 9531ft 270kts
23-Aug-20 13:27 46.163458 -122.980958 359 8379ft 264kts
23-Aug-20 13:28 46.236656 -122.981185 0 7210ft 261kts
23-Aug-20 13:29 46.308483 -122.980334 13 6038ft 256kts
23-Aug-20 13:30 46.376596 -122.961580 357 4965ft 254kts
23-Aug-20 13:31 46.445934 -122.966514 357 3869ft 241kts
23-Aug-20 13:32 46.511930 -122.971205 357 2819ft 234kts
23-Aug-20 13:33 46.566989 -122.975073 358 2001ft 144kts
23-Aug-20 13:34 46.603095 -122.978582 357 1656ft 108kts
23-Aug-20 13:35 46.628169 -122.979655 354 1151ft 89kts
23-Aug-20 13:36 46.653338 -122.981303 358 597ft 91kts
23-Aug-20 13:37 46.675646 -122.982653 358 176ft 42kts
23-Aug-20 13:38 46.676809 -122.984905 177 170ft 12kts
23-Aug-20 13:40 46.673483 -122.984590 177 175ft 0kts
23-Aug-20 13:41 46.673483 -122.984590 177 175ft 0kts

Navigation Log

Ident Type
Flight plan parsing failed, navigation log unavailable